Stratton, Illinois
Current Conditions -  °F | °C
As of 1:55 PM on Saturday 20 Dec 2014 (Local Time) from KMVN Reporting Station
Overcast Overcast  
Wind Chill: 36°   Ceiling: 3500
Heat Index: 39°   Visibility: 10mi
Dew Point: 27°   Wind: 5mph
Humidity: 61%   Direction: 170°S
Pressure: 30.25"   Gusts: NA
Location:  38.3716°N, 88.6497°W
Report Text: KMVN 201955Z AUTO 17004KT 10SM OVC035 04/M03 A3025 RMK AO1
Loading
Personal Weather Stations






























Interactive Weather Map New forecast layout! Learn more

10-Day Weather Forecast

Advertisements
Track Severe Weather on mobile